sensor_id;sensor_type;location;lat;lon;timestamp;P1;durP1;ratioP1;P2;durP2;ratioP2
78875;SDS011;68253;52.506;5.486;2024-03-22T00:01:50;32.15;;;15.85;;
78875;SDS011;68253;52.506;5.486;2024-03-22T00:04:17;30.13;;;14.60;;
78875;SDS011;68253;52.506;5.486;2024-03-22T00:06:44;32.47;;;12.82;;
78875;SDS011;68253;52.506;5.486;2024-03-22T00:09:11;34.53;;;15.63;;
78875;SDS011;68253;52.506;5.486;2024-03-22T00:11:41;31.75;;;14.45;;
78875;SDS011;68253;52.506;5.486;2024-03-22T00:14:08;31.92;;;15.25;;
78875;SDS011;68253;52.506;5.486;2024-03-22T00:16:35;32.10;;;15.63;;
78875;SDS011;68253;52.506;5.486;2024-03-22T00:19:02;32.55;;;15.50;;
78875;SDS011;68253;52.506;5.486;2024-03-22T00:21:28;28.23;;;14.25;;
78875;SDS011;68253;52.506;5.486;2024-03-22T00:23:55;34.28;;;15.73;;
78875;SDS011;68253;52.506;5.486;2024-03-22T00:28:50;34.13;;;16.05;;
78875;SDS011;68253;52.506;5.486;2024-03-22T00:31:16;30.65;;;14.32;;
78875;SDS011;68253;52.506;5.486;2024-03-22T00:33:43;35.47;;;17.38;;
78875;SDS011;68253;52.506;5.486;2024-03-22T00:36:09;29.27;;;14.35;;
78875;SDS011;68253;52.506;5.486;2024-03-22T00:38:35;35.83;;;16.25;;
78875;SDS011;68253;52.506;5.486;2024-03-22T00:41:01;32.65;;;15.73;;
78875;SDS011;68253;52.506;5.486;2024-03-22T00:43:28;33.88;;;16.27;;
78875;SDS011;68253;52.506;5.486;2024-03-22T00:45:54;32.25;;;15.57;;
78875;SDS011;68253;52.506;5.486;2024-03-22T00:48:20;34.50;;;17.05;;
78875;SDS011;68253;52.506;5.486;2024-03-22T00:50:46;33.35;;;16.13;;
78875;SDS011;68253;52.506;5.486;2024-03-22T00:53:12;32.85;;;15.68;;
78875;SDS011;68253;52.506;5.486;2024-03-22T00:55:38;32.65;;;15.70;;
78875;SDS011;68253;52.506;5.486;2024-03-22T00:58:04;35.20;;;16.48;;
78875;SDS011;68253;52.506;5.486;2024-03-22T01:00:30;35.47;;;16.67;;
78875;SDS011;68253;52.506;5.486;2024-03-22T01:02:57;35.67;;;17.25;;
78875;SDS011;68253;52.506;5.486;2024-03-22T01:05:23;35.08;;;15.27;;
78875;SDS011;68253;52.506;5.486;2024-03-22T01:07:49;36.60;;;16.98;;
78875;SDS011;68253;52.506;5.486;2024-03-22T01:10:15;37.47;;;16.92;;
78875;SDS011;68253;52.506;5.486;2024-03-22T01:12:41;34.67;;;16.63;;
78875;SDS011;68253;52.506;5.486;2024-03-22T01:15:07;36.63;;;16.58;;
78875;SDS011;68253;52.506;5.486;2024-03-22T01:17:34;35.22;;;16.45;;
78875;SDS011;68253;52.506;5.486;2024-03-22T01:20:01;35.05;;;16.42;;
78875;SDS011;68253;52.506;5.486;2024-03-22T01:22:27;35.28;;;16.50;;
78875;SDS011;68253;52.506;5.486;2024-03-22T01:24:54;34.00;;;16.05;;
78875;SDS011;68253;52.506;5.486;2024-03-22T01:27:20;34.63;;;16.02;;
78875;SDS011;68253;52.506;5.486;2024-03-22T01:29:46;40.80;;;17.17;;
78875;SDS011;68253;52.506;5.486;2024-03-22T01:32:13;39.63;;;18.88;;
78875;SDS011;68253;52.506;5.486;2024-03-22T01:34:39;38.03;;;16.98;;
78875;SDS011;68253;52.506;5.486;2024-03-22T01:37:05;37.13;;;16.35;;
78875;SDS011;68253;52.506;5.486;2024-03-22T01:39:31;37.13;;;16.13;;
78875;SDS011;68253;52.506;5.486;2024-03-22T01:41:58;41.92;;;19.08;;
78875;SDS011;68253;52.506;5.486;2024-03-22T01:44:27;38.38;;;17.50;;
78875;SDS011;68253;52.506;5.486;2024-03-22T01:46:54;39.92;;;18.52;;
78875;SDS011;68253;52.506;5.486;2024-03-22T01:49:20;40.08;;;18.48;;
78875;SDS011;68253;52.506;5.486;2024-03-22T01:51:47;38.25;;;16.60;;
78875;SDS011;68253;52.506;5.486;2024-03-22T01:54:13;39.72;;;17.80;;
78875;SDS011;68253;52.506;5.486;2024-03-22T01:56:42;43.50;;;19.27;;
78875;SDS011;68253;52.506;5.486;2024-03-22T01:59:08;36.03;;;15.80;;
78875;SDS011;68253;52.506;5.486;2024-03-22T02:01:34;40.92;;;16.27;;
78875;SDS011;68253;52.506;5.486;2024-03-22T02:04:01;39.00;;;17.58;;
78875;SDS011;68253;52.506;5.486;2024-03-22T02:06:28;41.05;;;16.92;;
78875;SDS011;68253;52.506;5.486;2024-03-22T02:08:54;37.35;;;16.30;;
78875;SDS011;68253;52.506;5.486;2024-03-22T02:11:21;44.95;;;19.27;;
78875;SDS011;68253;52.506;5.486;2024-03-22T02:13:48;37.58;;;16.58;;
78875;SDS011;68253;52.506;5.486;2024-03-22T02:16:14;39.53;;;17.20;;
78875;SDS011;68253;52.506;5.486;2024-03-22T02:18:40;36.35;;;15.55;;
78875;SDS011;68253;52.506;5.486;2024-03-22T02:21:06;39.33;;;17.50;;
78875;SDS011;68253;52.506;5.486;2024-03-22T02:23:33;34.17;;;15.32;;
78875;SDS011;68253;52.506;5.486;2024-03-22T02:26:00;41.17;;;16.67;;
78875;SDS011;68253;52.506;5.486;2024-03-22T02:28:27;40.28;;;16.75;;
78875;SDS011;68253;52.506;5.486;2024-03-22T02:30:53;37.28;;;16.08;;
78875;SDS011;68253;52.506;5.486;2024-03-22T02:33:19;43.17;;;16.50;;
78875;SDS011;68253;52.506;5.486;2024-03-22T02:35:46;38.47;;;16.90;;
78875;SDS011;68253;52.506;5.486;2024-03-22T02:38:13;38.53;;;15.85;;
78875;SDS011;68253;52.506;5.486;2024-03-22T02:40:39;36.47;;;16.15;;
78875;SDS011;68253;52.506;5.486;2024-03-22T02:43:05;40.20;;;18.23;;
78875;SDS011;68253;52.506;5.486;2024-03-22T02:45:31;36.10;;;15.98;;
78875;SDS011;68253;52.506;5.486;2024-03-22T02:47:58;32.60;;;15.23;;
78875;SDS011;68253;52.506;5.486;2024-03-22T02:50:24;37.85;;;15.60;;
78875;SDS011;68253;52.506;5.486;2024-03-22T02:52:50;38.92;;;16.73;;
78875;SDS011;68253;52.506;5.486;2024-03-22T02:55:16;38.38;;;16.60;;
78875;SDS011;68253;52.506;5.486;2024-03-22T02:57:42;38.92;;;14.32;;
78875;SDS011;68253;52.506;5.486;2024-03-22T03:00:09;37.55;;;16.63;;
78875;SDS011;68253;52.506;5.486;2024-03-22T03:02:35;38.22;;;16.42;;
78875;SDS011;68253;52.506;5.486;2024-03-22T03:05:02;36.20;;;16.25;;
78875;SDS011;68253;52.506;5.486;2024-03-22T03:07:29;37.10;;;15.70;;
78875;SDS011;68253;52.506;5.486;2024-03-22T03:09:55;39.88;;;15.32;;
78875;SDS011;68253;52.506;5.486;2024-03-22T03:12:21;43.75;;;17.17;;
78875;SDS011;68253;52.506;5.486;2024-03-22T03:14:47;32.80;;;13.85;;
78875;SDS011;68253;52.506;5.486;2024-03-22T03:17:13;36.03;;;14.90;;
78875;SDS011;68253;52.506;5.486;2024-03-22T03:19:39;36.35;;;15.18;;
78875;SDS011;68253;52.506;5.486;2024-03-22T03:22:05;35.50;;;15.48;;
78875;SDS011;68253;52.506;5.486;2024-03-22T03:24:31;36.20;;;17.17;;
78875;SDS011;68253;52.506;5.486;2024-03-22T03:26:57;35.28;;;15.82;;
78875;SDS011;68253;52.506;5.486;2024-03-22T03:29:23;36.20;;;16.30;;
78875;SDS011;68253;52.506;5.486;2024-03-22T03:31:50;39.03;;;14.65;;
78875;SDS011;68253;52.506;5.486;2024-03-22T03:34:16;41.67;;;18.73;;
78875;SDS011;68253;52.506;5.486;2024-03-22T03:36:42;34.28;;;13.25;;
78875;SDS011;68253;52.506;5.486;2024-03-22T03:39:08;35.72;;;14.75;;
78875;SDS011;68253;52.506;5.486;2024-03-22T03:41:35;37.40;;;15.45;;
78875;SDS011;68253;52.506;5.486;2024-03-22T03:44:01;35.08;;;15.18;;
78875;SDS011;68253;52.506;5.486;2024-03-22T03:46:27;33.55;;;14.63;;
78875;SDS011;68253;52.506;5.486;2024-03-22T03:48:53;33.50;;;14.30;;
78875;SDS011;68253;52.506;5.486;2024-03-22T03:51:19;34.78;;;15.25;;
78875;SDS011;68253;52.506;5.486;2024-03-22T03:53:45;40.35;;;16.30;;
78875;SDS011;68253;52.506;5.486;2024-03-22T03:56:11;32.63;;;12.38;;
78875;SDS011;68253;52.506;5.486;2024-03-22T03:58:38;38.13;;;15.65;;
78875;SDS011;68253;52.506;5.486;2024-03-22T04:01:10;35.22;;;15.70;;
78875;SDS011;68253;52.506;5.486;2024-03-22T04:03:36;31.73;;;13.93;;
78875;SDS011;68253;52.506;5.486;2024-03-22T04:06:02;31.55;;;12.82;;
78875;SDS011;68253;52.506;5.486;2024-03-22T04:08:28;35.22;;;15.23;;
78875;SDS011;68253;52.506;5.486;2024-03-22T04:10:56;35.95;;;16.40;;
78875;SDS011;68253;52.506;5.486;2024-03-22T04:13:23;34.15;;;15.95;;
78875;SDS011;68253;52.506;5.486;2024-03-22T04:15:50;37.58;;;16.33;;
78875;SDS011;68253;52.506;5.486;2024-03-22T04:18:16;37.20;;;17.15;;
78875;SDS011;68253;52.506;5.486;2024-03-22T04:20:42;32.20;;;14.50;;
78875;SDS011;68253;52.506;5.486;2024-03-22T04:23:11;30.40;;;14.70;;
78875;SDS011;68253;52.506;5.486;2024-03-22T04:25:37;27.48;;;13.63;;
78875;SDS011;68253;52.506;5.486;2024-03-22T04:28:03;31.17;;;15.45;;
78875;SDS011;68253;52.506;5.486;2024-03-22T04:30:30;34.35;;;15.02;;
78875;SDS011;68253;52.506;5.486;2024-03-22T04:32:56;30.20;;;14.45;;
78875;SDS011;68253;52.506;5.486;2024-03-22T04:35:22;32.92;;;15.13;;
78875;SDS011;68253;52.506;5.486;2024-03-22T04:37:48;31.60;;;14.63;;
78875;SDS011;68253;52.506;5.486;2024-03-22T04:40:14;29.13;;;13.82;;
78875;SDS011;68253;52.506;5.486;2024-03-22T04:42:40;28.05;;;13.65;;
78875;SDS011;68253;52.506;5.486;2024-03-22T04:45:06;27.40;;;12.55;;
78875;SDS011;68253;52.506;5.486;2024-03-22T04:47:33;33.08;;;14.55;;
78875;SDS011;68253;52.506;5.486;2024-03-22T04:49:59;30.00;;;14.00;;
78875;SDS011;68253;52.506;5.486;2024-03-22T04:52:25;32.08;;;13.43;;
78875;SDS011;68253;52.506;5.486;2024-03-22T04:54:51;30.95;;;12.75;;
78875;SDS011;68253;52.506;5.486;2024-03-22T04:57:17;31.20;;;13.50;;
78875;SDS011;68253;52.506;5.486;2024-03-22T04:59:43;24.90;;;10.15;;
78875;SDS011;68253;52.506;5.486;2024-03-22T05:02:09;22.88;;;10.40;;
78875;SDS011;68253;52.506;5.486;2024-03-22T05:04:35;26.77;;;11.27;;
78875;SDS011;68253;52.506;5.486;2024-03-22T05:07:02;26.55;;;10.52;;
78875;SDS011;68253;52.506;5.486;2024-03-22T05:09:29;27.23;;;11.40;;
78875;SDS011;68253;52.506;5.486;2024-03-22T05:11:57;25.88;;;10.45;;
78875;SDS011;68253;52.506;5.486;2024-03-22T05:14:23;28.48;;;11.13;;
78875;SDS011;68253;52.506;5.486;2024-03-22T05:16:49;30.17;;;11.88;;
78875;SDS011;68253;52.506;5.486;2024-03-22T05:19:16;24.40;;;10.55;;
78875;SDS011;68253;52.506;5.486;2024-03-22T05:21:42;26.30;;;11.25;;
78875;SDS011;68253;52.506;5.486;2024-03-22T05:24:08;24.95;;;10.48;;
78875;SDS011;68253;52.506;5.486;2024-03-22T05:26:34;27.40;;;10.00;;
78875;SDS011;68253;52.506;5.486;2024-03-22T05:29:02;22.15;;;9.30;;
78875;SDS011;68253;52.506;5.486;2024-03-22T05:31:28;20.55;;;9.48;;
78875;SDS011;68253;52.506;5.486;2024-03-22T05:33:54;23.77;;;10.15;;
78875;SDS011;68253;52.506;5.486;2024-03-22T05:36:21;22.75;;;10.23;;
78875;SDS011;68253;52.506;5.486;2024-03-22T05:38:47;19.77;;;8.05;;
78875;SDS011;68253;52.506;5.486;2024-03-22T05:41:13;24.83;;;9.88;;
78875;SDS011;68253;52.506;5.486;2024-03-22T05:43:39;24.73;;;9.35;;
78875;SDS011;68253;52.506;5.486;2024-03-22T05:46:05;22.88;;;9.77;;
78875;SDS011;68253;52.506;5.486;2024-03-22T05:48:31;25.25;;;9.45;;
78875;SDS011;68253;52.506;5.486;2024-03-22T05:50:57;24.30;;;10.43;;
78875;SDS011;68253;52.506;5.486;2024-03-22T05:53:23;25.77;;;10.40;;
78875;SDS011;68253;52.506;5.486;2024-03-22T05:55:49;25.58;;;9.90;;
78875;SDS011;68253;52.506;5.486;2024-03-22T05:58:15;22.90;;;9.45;;
78875;SDS011;68253;52.506;5.486;2024-03-22T06:00:41;24.30;;;9.20;;
78875;SDS011;68253;52.506;5.486;2024-03-22T06:03:08;25.75;;;10.70;;
78875;SDS011;68253;52.506;5.486;2024-03-22T06:05:34;23.55;;;9.40;;
78875;SDS011;68253;52.506;5.486;2024-03-22T06:08:00;19.45;;;8.02;;
78875;SDS011;68253;52.506;5.486;2024-03-22T06:10:26;23.38;;;8.52;;
78875;SDS011;68253;52.506;5.486;2024-03-22T06:12:52;24.13;;;9.30;;
78875;SDS011;68253;52.506;5.486;2024-03-22T06:15:19;20.38;;;7.60;;
78875;SDS011;68253;52.506;5.486;2024-03-22T06:17:47;21.40;;;8.07;;
78875;SDS011;68253;52.506;5.486;2024-03-22T06:20:13;23.75;;;8.27;;
78875;SDS011;68253;52.506;5.486;2024-03-22T06:22:39;18.77;;;7.32;;
78875;SDS011;68253;52.506;5.486;2024-03-22T06:25:06;22.83;;;7.47;;
78875;SDS011;68253;52.506;5.486;2024-03-22T06:27:32;22.67;;;8.45;;
78875;SDS011;68253;52.506;5.486;2024-03-22T06:29:58;20.42;;;7.07;;
78875;SDS011;68253;52.506;5.486;2024-03-22T06:32:24;24.80;;;7.60;;
78875;SDS011;68253;52.506;5.486;2024-03-22T06:34:50;23.13;;;6.90;;
78875;SDS011;68253;52.506;5.486;2024-03-22T06:37:16;19.73;;;6.38;;
78875;SDS011;68253;52.506;5.486;2024-03-22T06:39:42;18.42;;;7.03;;
78875;SDS011;68253;52.506;5.486;2024-03-22T06:42:08;19.70;;;7.20;;
78875;SDS011;68253;52.506;5.486;2024-03-22T06:44:34;17.70;;;5.65;;
78875;SDS011;68253;52.506;5.486;2024-03-22T06:47:00;17.60;;;5.00;;
78875;SDS011;68253;52.506;5.486;2024-03-22T06:49:27;15.57;;;5.53;;
78875;SDS011;68253;52.506;5.486;2024-03-22T06:51:53;17.95;;;5.07;;
78875;SDS011;68253;52.506;5.486;2024-03-22T06:54:19;17.67;;;5.10;;
78875;SDS011;68253;52.506;5.486;2024-03-22T06:56:46;21.33;;;5.07;;
78875;SDS011;68253;52.506;5.486;2024-03-22T06:59:12;15.43;;;5.53;;
78875;SDS011;68253;52.506;5.486;2024-03-22T07:01:39;17.40;;;5.40;;
78875;SDS011;68253;52.506;5.486;2024-03-22T07:04:05;18.95;;;5.20;;
78875;SDS011;68253;52.506;5.486;2024-03-22T07:06:31;16.00;;;5.10;;
78875;SDS011;68253;52.506;5.486;2024-03-22T07:08:57;17.92;;;4.97;;
78875;SDS011;68253;52.506;5.486;2024-03-22T07:11:23;17.75;;;5.10;;
78875;SDS011;68253;52.506;5.486;2024-03-22T07:13:49;17.15;;;4.80;;
78875;SDS011;68253;52.506;5.486;2024-03-22T07:16:15;16.58;;;5.35;;
78875;SDS011;68253;52.506;5.486;2024-03-22T07:18:41;16.52;;;4.55;;
78875;SDS011;68253;52.506;5.486;2024-03-22T07:21:08;20.55;;;5.45;;
78875;SDS011;68253;52.506;5.486;2024-03-22T07:23:34;20.20;;;5.85;;
78875;SDS011;68253;52.506;5.486;2024-03-22T07:26:00;17.13;;;4.88;;
78875;SDS011;68253;52.506;5.486;2024-03-22T07:28:26;14.57;;;4.40;;
78875;SDS011;68253;52.506;5.486;2024-03-22T07:30:52;21.42;;;5.65;;
78875;SDS011;68253;52.506;5.486;2024-03-22T07:33:20;18.25;;;5.40;;
78875;SDS011;68253;52.506;5.486;2024-03-22T07:35:47;23.70;;;6.95;;
78875;SDS011;68253;52.506;5.486;2024-03-22T07:38:13;17.20;;;5.28;;
78875;SDS011;68253;52.506;5.486;2024-03-22T07:40:39;16.88;;;4.80;;
78875;SDS011;68253;52.506;5.486;2024-03-22T07:43:05;18.50;;;4.70;;
78875;SDS011;68253;52.506;5.486;2024-03-22T07:45:34;18.92;;;4.88;;
78875;SDS011;68253;52.506;5.486;2024-03-22T07:48:01;20.00;;;5.57;;
78875;SDS011;68253;52.506;5.486;2024-03-22T07:50:27;18.25;;;4.78;;
78875;SDS011;68253;52.506;5.486;2024-03-22T07:52:53;16.75;;;5.40;;
78875;SDS011;68253;52.506;5.486;2024-03-22T07:55:19;18.88;;;5.75;;
78875;SDS011;68253;52.506;5.486;2024-03-22T07:57:46;20.40;;;6.40;;
78875;SDS011;68253;52.506;5.486;2024-03-22T08:00:12;16.27;;;5.13;;
78875;SDS011;68253;52.506;5.486;2024-03-22T08:02:38;17.08;;;5.35;;
78875;SDS011;68253;52.506;5.486;2024-03-22T08:05:04;19.42;;;5.63;;
78875;SDS011;68253;52.506;5.486;2024-03-22T08:07:32;17.52;;;5.50;;
78875;SDS011;68253;52.506;5.486;2024-03-22T08:09:58;18.40;;;5.72;;
78875;SDS011;68253;52.506;5.486;2024-03-22T08:12:25;14.25;;;5.55;;
78875;SDS011;68253;52.506;5.486;2024-03-22T08:14:51;21.83;;;6.20;;
78875;SDS011;68253;52.506;5.486;2024-03-22T08:17:17;17.83;;;5.38;;
78875;SDS011;68253;52.506;5.486;2024-03-22T08:19:43;17.67;;;6.13;;
78875;SDS011;68253;52.506;5.486;2024-03-22T08:22:10;17.80;;;5.43;;
78875;SDS011;68253;52.506;5.486;2024-03-22T08:24:36;17.05;;;4.95;;
78875;SDS011;68253;52.506;5.486;2024-03-22T08:27:03;15.77;;;6.13;;
78875;SDS011;68253;52.506;5.486;2024-03-22T08:29:29;16.77;;;6.05;;
78875;SDS011;68253;52.506;5.486;2024-03-22T08:31:55;21.48;;;6.82;;
78875;SDS011;68253;52.506;5.486;2024-03-22T08:34:21;16.38;;;5.78;;
78875;SDS011;68253;52.506;5.486;2024-03-22T08:36:47;20.35;;;6.90;;
78875;SDS011;68253;52.506;5.486;2024-03-22T08:39:14;20.63;;;7.22;;
78875;SDS011;68253;52.506;5.486;2024-03-22T08:41:41;15.27;;;5.63;;
78875;SDS011;68253;52.506;5.486;2024-03-22T08:44:07;17.17;;;6.10;;
78875;SDS011;68253;52.506;5.486;2024-03-22T08:46:33;19.20;;;7.60;;
78875;SDS011;68253;52.506;5.486;2024-03-22T08:48:59;21.35;;;6.43;;
78875;SDS011;68253;52.506;5.486;2024-03-22T08:51:25;17.30;;;6.10;;
78875;SDS011;68253;52.506;5.486;2024-03-22T08:53:51;16.30;;;5.93;;
78875;SDS011;68253;52.506;5.486;2024-03-22T08:56:17;19.00;;;6.80;;
78875;SDS011;68253;52.506;5.486;2024-03-22T08:58:44;19.50;;;6.68;;
78875;SDS011;68253;52.506;5.486;2024-03-22T09:01:10;24.48;;;8.20;;
78875;SDS011;68253;52.506;5.486;2024-03-22T09:03:36;17.33;;;6.45;;
78875;SDS011;68253;52.506;5.486;2024-03-22T09:06:02;16.92;;;6.50;;
78875;SDS011;68253;52.506;5.486;2024-03-22T09:08:29;16.23;;;5.32;;
78875;SDS011;68253;52.506;5.486;2024-03-22T09:10:55;16.55;;;6.57;;
78875;SDS011;68253;52.506;5.486;2024-03-22T09:13:21;15.40;;;5.78;;
78875;SDS011;68253;52.506;5.486;2024-03-22T09:15:48;18.23;;;6.60;;
78875;SDS011;68253;52.506;5.486;2024-03-22T09:18:21;18.80;;;6.93;;
78875;SDS011;68253;52.506;5.486;2024-03-22T09:20:47;19.23;;;6.45;;
78875;SDS011;68253;52.506;5.486;2024-03-22T09:23:13;16.52;;;6.18;;
78875;SDS011;68253;52.506;5.486;2024-03-22T09:25:39;17.40;;;6.43;;
78875;SDS011;68253;52.506;5.486;2024-03-22T09:28:05;19.42;;;7.72;;
78875;SDS011;68253;52.506;5.486;2024-03-22T09:30:31;19.92;;;7.32;;
78875;SDS011;68253;52.506;5.486;2024-03-22T09:32:58;17.20;;;6.07;;
78875;SDS011;68253;52.506;5.486;2024-03-22T09:35:24;16.05;;;5.93;;
78875;SDS011;68253;52.506;5.486;2024-03-22T09:37:50;14.07;;;6.07;;
78875;SDS011;68253;52.506;5.486;2024-03-22T09:40:16;19.08;;;7.15;;
78875;SDS011;68253;52.506;5.486;2024-03-22T09:42:43;17.00;;;6.47;;
78875;SDS011;68253;52.506;5.486;2024-03-22T09:45:11;14.70;;;6.03;;
78875;SDS011;68253;52.506;5.486;2024-03-22T09:47:37;16.80;;;5.68;;
78875;SDS011;68253;52.506;5.486;2024-03-22T09:50:07;18.50;;;6.93;;
78875;SDS011;68253;52.506;5.486;2024-03-22T09:52:34;18.83;;;6.57;;
78875;SDS011;68253;52.506;5.486;2024-03-22T09:55:04;16.85;;;5.90;;
78875;SDS011;68253;52.506;5.486;2024-03-22T09:57:31;17.20;;;6.53;;
78875;SDS011;68253;52.506;5.486;2024-03-22T09:59:59;18.52;;;6.70;;
78875;SDS011;68253;52.506;5.486;2024-03-22T10:02:26;22.33;;;6.75;;
78875;SDS011;68253;52.506;5.486;2024-03-22T10:04:52;16.63;;;7.13;;
78875;SDS011;68253;52.506;5.486;2024-03-22T10:07:18;17.92;;;7.18;;
78875;SDS011;68253;52.506;5.486;2024-03-22T10:09:44;12.70;;;4.97;;
78875;SDS011;68253;52.506;5.486;2024-03-22T10:12:12;16.67;;;7.18;;
78875;SDS011;68253;52.506;5.486;2024-03-22T10:14:38;15.90;;;5.60;;
78875;SDS011;68253;52.506;5.486;2024-03-22T10:17:05;12.82;;;5.18;;
78875;SDS011;68253;52.506;5.486;2024-03-22T10:19:34;14.52;;;5.95;;
78875;SDS011;68253;52.506;5.486;2024-03-22T10:22:00;18.40;;;6.57;;
78875;SDS011;68253;52.506;5.486;2024-03-22T10:26:56;14.32;;;5.13;;
78875;SDS011;68253;52.506;5.486;2024-03-22T10:29:22;12.82;;;4.45;;
78875;SDS011;68253;52.506;5.486;2024-03-22T10:31:51;15.77;;;6.43;;
78875;SDS011;68253;52.506;5.486;2024-03-22T10:34:20;14.98;;;5.25;;
78875;SDS011;68253;52.506;5.486;2024-03-22T10:36:48;15.45;;;5.32;;
78875;SDS011;68253;52.506;5.486;2024-03-22T10:39:18;12.45;;;4.95;;
78875;SDS011;68253;52.506;5.486;2024-03-22T10:41:45;15.07;;;5.75;;
78875;SDS011;68253;52.506;5.486;2024-03-22T10:44:12;12.23;;;4.65;;
78875;SDS011;68253;52.506;5.486;2024-03-22T10:46:43;11.30;;;5.13;;
78875;SDS011;68253;52.506;5.486;2024-03-22T10:49:15;11.95;;;4.70;;
78875;SDS011;68253;52.506;5.486;2024-03-22T10:51:43;13.85;;;5.22;;
78875;SDS011;68253;52.506;5.486;2024-03-22T10:54:13;10.88;;;4.13;;
78875;SDS011;68253;52.506;5.486;2024-03-22T10:56:44;11.05;;;4.32;;
78875;SDS011;68253;52.506;5.486;2024-03-22T10:59:18;11.88;;;3.92;;
78875;SDS011;68253;52.506;5.486;2024-03-22T11:01:45;11.35;;;4.45;;
78875;SDS011;68253;52.506;5.486;2024-03-22T11:04:12;11.63;;;4.85;;
78875;SDS011;68253;52.506;5.486;2024-03-22T11:06:38;12.35;;;4.78;;
78875;SDS011;68253;52.506;5.486;2024-03-22T11:09:05;11.15;;;4.38;;
78875;SDS011;68253;52.506;5.486;2024-03-22T11:11:31;9.75;;;4.25;;
78875;SDS011;68253;52.506;5.486;2024-03-22T11:14:03;10.63;;;3.90;;
78875;SDS011;68253;52.506;5.486;2024-03-22T11:16:29;10.65;;;3.92;;
78875;SDS011;68253;52.506;5.486;2024-03-22T11:18:55;10.95;;;4.72;;
78875;SDS011;68253;52.506;5.486;2024-03-22T11:21:22;13.68;;;4.70;;
78875;SDS011;68253;52.506;5.486;2024-03-22T11:23:49;12.77;;;5.05;;
78875;SDS011;68253;52.506;5.486;2024-03-22T11:26:15;11.93;;;5.38;;
78875;SDS011;68253;52.506;5.486;2024-03-22T11:28:42;10.70;;;4.72;;
78875;SDS011;68253;52.506;5.486;2024-03-22T11:31:08;10.05;;;4.57;;
78875;SDS011;68253;52.506;5.486;2024-03-22T11:33:34;11.20;;;4.72;;
78875;SDS011;68253;52.506;5.486;2024-03-22T11:36:01;10.65;;;4.57;;
78875;SDS011;68253;52.506;5.486;2024-03-22T11:38:30;10.30;;;4.40;;
78875;SDS011;68253;52.506;5.486;2024-03-22T11:40:57;10.40;;;4.53;;
78875;SDS011;68253;52.506;5.486;2024-03-22T11:43:26;11.57;;;5.03;;
78875;SDS011;68253;52.506;5.486;2024-03-22T11:45:54;12.15;;;5.28;;
78875;SDS011;68253;52.506;5.486;2024-03-22T11:48:20;12.85;;;6.03;;
78875;SDS011;68253;52.506;5.486;2024-03-22T11:50:49;12.75;;;5.53;;
78875;SDS011;68253;52.506;5.486;2024-03-22T11:53:16;15.85;;;7.40;;
78875;SDS011;68253;52.506;5.486;2024-03-22T11:55:43;16.20;;;7.43;;
78875;SDS011;68253;52.506;5.486;2024-03-22T11:58:12;14.18;;;6.90;;
78875;SDS011;68253;52.506;5.486;2024-03-22T12:00:38;13.15;;;6.45;;
78875;SDS011;68253;52.506;5.486;2024-03-22T12:03:04;16.58;;;7.25;;
78875;SDS011;68253;52.506;5.486;2024-03-22T12:05:33;15.65;;;5.93;;
78875;SDS011;68253;52.506;5.486;2024-03-22T12:07:59;17.80;;;6.28;;
78875;SDS011;68253;52.506;5.486;2024-03-22T12:10:25;16.13;;;7.05;;
78875;SDS011;68253;52.506;5.486;2024-03-22T12:12:51;17.02;;;6.93;;
78875;SDS011;68253;52.506;5.486;2024-03-22T12:15:19;17.52;;;6.20;;
78875;SDS011;68253;52.506;5.486;2024-03-22T12:17:45;18.58;;;7.03;;
78875;SDS011;68253;52.506;5.486;2024-03-22T12:20:11;19.83;;;7.82;;
78875;SDS011;68253;52.506;5.486;2024-03-22T12:22:40;18.02;;;7.53;;
78875;SDS011;68253;52.506;5.486;2024-03-22T12:25:07;16.85;;;6.57;;
78875;SDS011;68253;52.506;5.486;2024-03-22T12:27:35;19.25;;;6.93;;
78875;SDS011;68253;52.506;5.486;2024-03-22T12:30:01;15.20;;;6.25;;
78875;SDS011;68253;52.506;5.486;2024-03-22T12:32:27;17.40;;;7.22;;
78875;SDS011;68253;52.506;5.486;2024-03-22T12:34:54;17.27;;;6.30;;
78875;SDS011;68253;52.506;5.486;2024-03-22T12:37:20;14.93;;;6.18;;
78875;SDS011;68253;52.506;5.486;2024-03-22T12:39:46;15.68;;;5.72;;
78875;SDS011;68253;52.506;5.486;2024-03-22T12:42:12;13.15;;;5.50;;
78875;SDS011;68253;52.506;5.486;2024-03-22T12:44:39;17.13;;;6.20;;
78875;SDS011;68253;52.506;5.486;2024-03-22T12:47:05;17.58;;;6.72;;
78875;SDS011;68253;52.506;5.486;2024-03-22T12:49:31;16.30;;;6.18;;
78875;SDS011;68253;52.506;5.486;2024-03-22T12:51:57;17.38;;;7.03;;
78875;SDS011;68253;52.506;5.486;2024-03-22T12:54:23;16.02;;;6.20;;
78875;SDS011;68253;52.506;5.486;2024-03-22T12:56:52;15.20;;;5.90;;
78875;SDS011;68253;52.506;5.486;2024-03-22T12:59:18;14.15;;;5.70;;
78875;SDS011;68253;52.506;5.486;2024-03-22T13:01:44;13.93;;;5.07;;
78875;SDS011;68253;52.506;5.486;2024-03-22T13:04:10;20.83;;;6.45;;
78875;SDS011;68253;52.506;5.486;2024-03-22T13:06:37;15.35;;;5.97;;
78875;SDS011;68253;52.506;5.486;2024-03-22T13:09:03;17.00;;;5.63;;
78875;SDS011;68253;52.506;5.486;2024-03-22T13:11:31;14.45;;;6.07;;
78875;SDS011;68253;52.506;5.486;2024-03-22T13:13:57;15.15;;;5.47;;
78875;SDS011;68253;52.506;5.486;2024-03-22T13:16:24;12.48;;;4.68;;
78875;SDS011;68253;52.506;5.486;2024-03-22T13:18:50;16.45;;;5.60;;
78875;SDS011;68253;52.506;5.486;2024-03-22T13:21:17;13.98;;;5.32;;
78875;SDS011;68253;52.506;5.486;2024-03-22T13:23:43;11.93;;;4.45;;
78875;SDS011;68253;52.506;5.486;2024-03-22T13:26:09;15.20;;;5.07;;
78875;SDS011;68253;52.506;5.486;2024-03-22T13:28:36;15.35;;;5.32;;
78875;SDS011;68253;52.506;5.486;2024-03-22T13:31:02;14.02;;;4.82;;
78875;SDS011;68253;52.506;5.486;2024-03-22T13:33:32;15.30;;;4.93;;
78875;SDS011;68253;52.506;5.486;2024-03-22T13:35:59;14.55;;;4.22;;
78875;SDS011;68253;52.506;5.486;2024-03-22T13:38:26;12.52;;;4.10;;
78875;SDS011;68253;52.506;5.486;2024-03-22T13:40:54;11.55;;;3.15;;
78875;SDS011;68253;52.506;5.486;2024-03-22T13:43:22;13.57;;;3.10;;
78875;SDS011;68253;52.506;5.486;2024-03-22T13:45:57;13.75;;;4.00;;
78875;SDS011;68253;52.506;5.486;2024-03-22T13:48:26;13.95;;;3.30;;
78875;SDS011;68253;52.506;5.486;2024-03-22T13:50:53;15.10;;;3.63;;
78875;SDS011;68253;52.506;5.486;2024-03-22T13:53:20;12.88;;;3.47;;
78875;SDS011;68253;52.506;5.486;2024-03-22T13:55:50;13.38;;;3.30;;
78875;SDS011;68253;52.506;5.486;2024-03-22T13:58:18;10.70;;;2.88;;
78875;SDS011;68253;52.506;5.486;2024-03-22T14:00:44;14.50;;;2.95;;
78875;SDS011;68253;52.506;5.486;2024-03-22T14:03:10;13.30;;;2.95;;
78875;SDS011;68253;52.506;5.486;2024-03-22T14:05:36;11.63;;;2.10;;
78875;SDS011;68253;52.506;5.486;2024-03-22T14:08:03;11.18;;;2.67;;
78875;SDS011;68253;52.506;5.486;2024-03-22T14:10:29;11.40;;;2.15;;
78875;SDS011;68253;52.506;5.486;2024-03-22T14:12:59;9.75;;;2.10;;
78875;SDS011;68253;52.506;5.486;2024-03-22T14:15:25;12.30;;;2.80;;
78875;SDS011;68253;52.506;5.486;2024-03-22T14:17:52;12.52;;;2.75;;
78875;SDS011;68253;52.506;5.486;2024-03-22T14:20:19;12.32;;;2.58;;
78875;SDS011;68253;52.506;5.486;2024-03-22T14:22:45;13.40;;;3.60;;
78875;SDS011;68253;52.506;5.486;2024-03-22T14:25:12;12.20;;;2.60;;
78875;SDS011;68253;52.506;5.486;2024-03-22T14:27:38;14.30;;;3.17;;
78875;SDS011;68253;52.506;5.486;2024-03-22T14:30:04;9.68;;;2.60;;